Garden Spring, Nevada Weather observations

Data are for 10 minute period ending at time listed.
 Day   Time    Ave.   Ave.  Ave.  Vector   Max.   Stn.    Total    Solar   Ave.  
  of    of     Air    Rel.  Wind   Wind    Wind   Baro.  Precip.   Rad.    Soil  
Year   Day     Temp.  Hum.  Speed  Dir.    Gust   Pres.                    Temp. 
2014   (PST)    F      %     mph   deg.    mph     mb.     in.     W/m2     F    
--------------------------------------------------------------------------------- 
 239    3:00   60.4    62    2.1   260      5.3   856.2    0.00       0    71.9  
 239    4:00   59.1    65    2.8   289      5.3   856.4    0.00       0    71.3  
 239    5:00   57.8    68    3.3   281      6.2   856.7    0.00       1    70.6  
 239    6:00   58.9    66    3.5   279      6.3   857.1    0.00      49    70.2  
 239    7:00   65.7    48    1.1    44      4.3   857.6    0.00     166    70.1  
 239    8:00   70.1    42    1.6    87      6.3   857.8    0.00     388    70.2  
 239    9:00   72.5    39    3.7   104     10.3   858.1    0.00     598    70.7  
 239   10:00   74.1    41    4.7   108      9.8   858.2    0.00     777    71.2  
 239   11:00   75.7    39    5.1   136     11.5   858.0    0.00     873    71.7  
 239   12:00   78.3    32    6.6   150     12.2   857.6    0.00     930    73.4  
 239   13:00   80.9    25    7.6   166     14.5   857.1    0.00     924    76.6  
 239   14:00   82.3    22    5.9   229     14.4   856.6    0.00     717    80.1  
 239   15:00   82.4    21    5.0   247     13.9   856.1    0.00     588    82.3  
 239   16:00   84.2    19    5.3   282     13.2   855.9    0.00     547    83.6  
 239   17:00   83.9    19    4.8   249     13.6   855.7    0.00     363    83.9  
 239   18:00   80.3    22    4.2   209     10.0   855.7    0.00     104    83.2  
 239   19:00   73.7    31    3.8   254      5.4   856.1    0.00       3    82.1  
 239   20:00   72.3    32    4.7   265      7.9   856.6    0.00       0    81.1  
 239   21:00   69.9    33    4.2   270      7.0   856.9    0.00       0    79.8  
 239   22:00   67.4    36    4.3   272      7.0   857.0    0.00       0    78.6  
 239   23:00   66.5    38    4.5   273      6.6   857.1    0.00       0    77.5  
 240    0:00   65.6    39    4.5   278      7.0   857.2    0.00       0    76.4  
 240    1:00   66.2    39    5.0   280      7.0   857.1    0.00       0    75.5  
 240    2:00   65.1    44    4.2   275      6.2   857.1    0.00       0    74.5  

Return to Garden Spring, Nevada graphs page.


Western Regional Climate Center,wrcc@dri.edu